Time;durP1;ratioP1;P1;durP2;ratioP2;P2;SDS_P1;SDS_P2;PMS_P1;PMS_P2;Temp;Humidity;BMP_temperature;BMP_pressure;BME280_temperature;BME280_humidity;BME280_pressure;Samples;Min_cycle;Max_cycle;Signal;HPM_P1;HPM_P2
2023/01/04 00:01:15;;;;;;;13.47;9.40;;;;;;;3.13;100.00;99421.19;5071582;28;20207;-84
2023/01/04 00:03:43;;;;;;;13.83;10.10;;;;;;;3.13;100.00;99425.56;5071637;28;20632;-81
2023/01/04 00:06:12;;;;;;;16.20;10.23;;;;;;;3.16;100.00;99408.06;5071845;28;20685;-83
2023/01/04 00:08:39;;;;;;;13.83;9.50;;;;;;;3.12;100.00;99419.47;5087032;22;20354;-79
2023/01/04 00:11:08;;;;;;;13.07;9.57;;;;;;;3.04;100.00;99416.16;5071241;28;20216;-79
2023/01/04 00:13:35;;;;;;;13.93;9.77;;;;;;;3.00;100.00;99413.63;5071764;28;20319;-79
2023/01/04 00:16:05;;;;;;;12.63;9.40;;;;;;;2.98;100.00;99411.03;5071618;28;20670;-79
2023/01/04 00:18:32;;;;;;;11.30;9.57;;;;;;;2.89;100.00;99410.34;5071817;28;20769;-79
2023/01/04 00:21:07;;;;;;;11.40;9.03;;;;;;;2.87;100.00;99412.13;5071236;28;20228;-79
2023/01/04 00:23:34;;;;;;;13.60;9.70;;;;;;;2.81;100.00;99410.47;5071660;28;20243;-79
2023/01/04 00:26:01;;;;;;;13.20;9.83;;;;;;;2.76;100.00;99399.25;5071532;28;20205;-79
2023/01/04 00:28:27;;;;;;;11.93;9.70;;;;;;;2.72;100.00;99397.63;5071275;28;20259;-79
2023/01/04 00:30:54;;;;;;;12.33;8.90;;;;;;;2.67;100.00;99389.00;5071019;28;20576;-79
2023/01/04 00:33:20;;;;;;;12.73;10.17;;;;;;;2.66;100.00;99382.06;5070839;28;20207;-79
2023/01/04 00:35:47;;;;;;;12.23;9.30;;;;;;;2.56;100.00;99375.28;5071646;28;20213;-79
2023/01/04 00:38:13;;;;;;;13.77;9.33;;;;;;;2.58;100.00;99363.03;5071234;28;20241;-79
2023/01/04 00:40:41;;;;;;;10.90;9.13;;;;;;;2.55;100.00;99367.47;5070610;28;20205;-79
2023/01/04 00:43:07;;;;;;;12.57;9.23;;;;;;;2.48;100.00;99361.50;5071166;28;20246;-79
2023/01/04 00:45:34;;;;;;;10.30;8.60;;;;;;;2.45;100.00;99361.53;5071461;28;20207;-78
2023/01/04 00:48:00;;;;;;;12.97;8.93;;;;;;;2.41;100.00;99356.41;5071300;28;20236;-79
2023/01/04 00:50:27;;;;;;;12.50;9.63;;;;;;;2.40;100.00;99358.16;5070638;28;20222;-79
2023/01/04 00:52:53;;;;;;;12.70;9.70;;;;;;;2.47;100.00;99358.91;5071391;28;20214;-79
2023/01/04 00:55:20;;;;;;;12.80;10.33;;;;;;;2.50;100.00;99364.94;5071379;28;20607;-79
2023/01/04 00:57:48;;;;;;;13.93;10.17;;;;;;;2.57;100.00;99365.72;5071548;28;20208;-79
2023/01/04 01:00:15;;;;;;;13.47;9.57;;;;;;;2.68;100.00;99362.00;5070656;28;20211;-79
2023/01/04 01:02:41;;;;;;;11.07;9.10;;;;;;;2.63;100.00;99360.38;5071436;28;20263;-79
2023/01/04 01:05:08;;;;;;;13.13;9.93;;;;;;;2.64;100.00;99362.94;5071129;28;20233;-79
2023/01/04 01:07:34;;;;;;;14.10;10.13;;;;;;;2.61;100.00;99367.34;5071281;28;20221;-79
2023/01/04 01:10:01;;;;;;;17.70;10.93;;;;;;;2.66;100.00;99370.75;5070275;28;20218;-79
2023/01/04 01:12:27;;;;;;;13.37;9.90;;;;;;;2.66;100.00;99374.22;5071012;28;20210;-79
2023/01/04 01:14:55;;;;;;;12.83;10.13;;;;;;;2.70;100.00;99368.03;5071146;28;20666;-79
2023/01/04 01:17:22;;;;;;;14.47;10.50;;;;;;;2.71;100.00;99361.97;5071315;28;20212;-79
2023/01/04 01:19:48;;;;;;;12.23;8.73;;;;;;;2.63;100.00;99363.81;5070223;28;20248;-79
2023/01/04 01:22:15;;;;;;;12.27;8.73;;;;;;;2.57;100.00;99361.31;5070972;28;20207;-79
2023/01/04 01:24:41;;;;;;;10.37;8.20;;;;;;;2.55;100.00;99373.56;5070776;28;20224;-79
2023/01/04 01:27:08;;;;;;;10.40;8.43;;;;;;;2.52;100.00;99372.75;5071159;28;20578;-79
2023/01/04 01:29:34;;;;;;;12.07;8.57;;;;;;;2.46;100.00;99373.69;5070123;28;20245;-79
2023/01/04 01:32:02;;;;;;;12.20;8.50;;;;;;;2.49;100.00;99373.66;5071140;28;20215;-79
2023/01/04 01:34:28;;;;;;;14.23;9.07;;;;;;;2.55;100.00;99381.38;5070812;28;20572;-79
2023/01/04 01:36:55;;;;;;;14.20;9.47;;;;;;;2.53;100.00;99380.56;5070958;28;20205;-79
2023/01/04 01:39:21;;;;;;;11.67;8.50;;;;;;;2.51;100.00;99382.31;5069936;28;20228;-79
2023/01/04 01:41:48;;;;;;;10.10;8.20;;;;;;;2.44;100.00;99380.69;5070854;28;20216;-79
2023/01/04 01:44:56;;;;;;;11.93;8.03;;;;;;;2.41;100.00;99391.22;5071449;28;20237;-79
2023/01/04 01:47:28;;;;;;;10.40;8.20;;;;;;;2.38;100.00;99396.47;5074502;28;20699;-79
2023/01/04 01:49:54;;;;;;;13.23;8.47;;;;;;;2.34;100.00;99370.47;5074014;28;20246;-79
2023/01/04 01:52:23;;;;;;;10.37;8.70;;;;;;;2.37;100.00;99376.47;5074661;28;20209;-79
2023/01/04 01:54:57;;;;;;;11.13;8.63;;;;;;;2.29;100.00;99375.75;5074704;28;20212;-79
2023/01/04 01:57:27;;;;;;;9.13;7.93;;;;;;;2.23;100.00;99373.25;5074576;28;20218;-79
2023/01/04 01:59:58;;;;;;;12.77;8.93;;;;;;;2.18;100.00;99374.19;5072927;28;20228;-79
2023/01/04 02:02:25;;;;;;;12.40;8.70;;;;;;;2.21;100.00;99367.19;5071513;28;20686;-79
2023/01/04 02:04:52;;;;;;;10.30;8.23;;;;;;;2.15;100.00;99362.06;5073445;28;20229;-79
2023/01/04 02:07:24;;;;;;;10.53;8.40;;;;;;;2.15;100.00;99366.44;5074293;28;20211;-79
2023/01/04 02:09:51;;;;;;;11.30;8.03;;;;;;;2.17;100.00;99370.75;5073748;28;20235;-79
2023/01/04 02:12:18;;;;;;;10.90;8.10;;;;;;;2.15;100.00;99371.66;5074461;28;20218;-79
2023/01/04 02:14:47;;;;;;;11.57;8.87;;;;;;;2.13;100.00;99371.69;5074289;28;20581;-79
2023/01/04 02:17:20;;;;;;;13.93;8.50;;;;;;;2.14;100.00;99365.56;5074367;28;20215;-77
2023/01/04 02:20:10;;;;;;;11.33;8.87;;;;;;;2.16;100.00;99358.59;5073524;28;20628;-79
2023/01/04 02:23:08;;;;;;;13.93;9.03;;;;;;;2.17;100.00;99349.88;5074313;28;20264;-80
2023/01/04 02:26:16;;;;;;;12.17;7.90;;;;;;;2.16;100.00;99348.16;5074583;28;20601;-79
2023/01/04 02:29:04;;;;;;;11.83;8.87;;;;;;;2.19;100.00;99342.88;5073658;28;20718;-80
2023/01/04 02:31:39;;;;;;;12.50;8.73;;;;;;;2.15;100.00;99348.19;5074359;28;20216;-80
2023/01/04 02:34:15;;;;;;;12.27;8.73;;;;;;;2.12;100.00;99343.00;5074776;28;20206;-79
2023/01/04 02:36:54;;;;;;;13.97;9.73;;;;;;;2.06;100.00;99341.38;5074957;28;20214;-80
2023/01/04 02:39:33;;;;;;;12.47;8.80;;;;;;;2.04;100.00;99343.16;5073936;28;20233;-80
2023/01/04 02:42:07;;;;;;;10.70;8.40;;;;;;;2.01;100.00;99337.97;5075088;28;20205;-80
2023/01/04 02:44:52;;;;;;;11.97;8.20;;;;;;;2.00;100.00;99336.25;5074551;28;20228;-80
2023/01/04 02:50:32;;;;;;;13.47;8.97;;;;;;;1.92;100.00;99327.72;5073914;28;20291;-80
2023/01/04 02:53:01;;;;;;;11.63;8.67;;;;;;;1.89;100.00;99326.91;5075552;28;20359;-79
2023/01/04 02:55:43;;;;;;;11.13;7.73;;;;;;;1.88;100.00;99320.81;5074232;28;20269;-79
2023/01/04 02:58:19;;;;;;;12.00;8.47;;;;;;;1.92;100.00;99319.00;5075227;28;20227;-80
2023/01/04 03:06:40;;;;;;;11.70;8.13;;;;;;;1.83;100.00;99301.78;5098159;28;20208;-81
2023/01/04 03:09:14;;;;;;;9.53;7.90;;;;;;;1.81;100.00;99303.56;5096676;28;20243;-80
2023/01/04 03:14:34;;;;;;;11.57;8.07;;;;;;;1.67;100.00;99292.47;5098165;28;20225;-80
2023/01/04 03:17:04;;;;;;;11.27;8.33;;;;;;;1.67;100.00;99295.06;5098233;28;20281;-81
2023/01/04 03:19:53;;;;;;;10.47;7.73;;;;;;;1.65;100.00;99286.44;5096897;28;20223;-79
2023/01/04 03:36:37;;;;;;;11.60;8.37;;;;;;;1.82;100.00;99268.78;5097398;28;20246;-80
2023/01/04 03:50:38;;;;;;;13.60;9.00;;;;;;;1.90;100.00;99272.09;5076388;28;20720;-80
2023/01/04 03:53:08;;;;;;;12.00;8.33;;;;;;;2.00;100.00;99270.19;5095974;28;20192;-80
2023/01/04 03:55:36;;;;;;;12.53;8.93;;;;;;;2.02;100.00;99266.69;5096444;28;20207;-80
2023/01/04 03:58:03;;;;;;;14.07;9.67;;;;;;;2.08;100.00;99269.19;5095627;28;20209;-80
2023/01/04 04:00:30;;;;;;;12.00;8.43;;;;;;;2.05;100.00;99258.81;5095281;28;20203;-79
2023/01/04 04:03:05;;;;;;;13.60;9.43;;;;;;;2.17;100.00;99265.56;5094715;28;20202;-78
2023/01/04 04:08:29;;;;;;;13.20;10.53;;;;;;;2.30;100.00;99251.41;5078166;28;20749;-80
2023/01/04 04:11:28;;;;;;;15.17;10.70;;;;;;;2.37;100.00;99253.00;5071276;28;20217;-80
2023/01/04 04:13:45;;;;;;;13.93;9.37;;;;;;;2.41;100.00;99250.31;5071492;28;20216;-80
2023/01/04 04:16:12;;;;;;;13.40;9.63;;;;;;;2.50;100.00;99252.75;5071570;28;20681;-80
2023/01/04 04:18:38;;;;;;;15.60;10.07;;;;;;;2.59;100.00;99249.97;5071451;28;20233;-78
2023/01/04 04:21:05;;;;;;;14.90;10.00;;;;;;;2.71;100.00;99246.25;5071129;28;20219;-80
2023/01/04 04:23:33;;;;;;;13.27;8.50;;;;;;;2.79;100.00;99247.81;5071554;28;20666;-79
2023/01/04 04:26:00;;;;;;;13.70;9.17;;;;;;;2.88;100.00;99244.16;5071151;28;20340;-77
2023/01/04 04:28:26;;;;;;;10.63;8.57;;;;;;;2.97;100.00;99242.19;5071384;28;20287;-80
2023/01/04 04:30:53;;;;;;;9.87;7.47;;;;;;;3.03;100.00;99239.44;5070888;28;20221;-78
2023/01/04 04:33:19;;;;;;;10.57;7.77;;;;;;;3.11;100.00;99237.53;5071657;28;20206;-77
2023/01/04 04:35:50;;;;;;;12.83;8.00;;;;;;;3.17;100.00;99233.94;5071439;28;20209;-77
2023/01/04 04:38:16;;;;;;;9.63;7.60;;;;;;;3.30;100.00;99236.22;5071613;28;20250;-77
2023/01/04 04:43:28;;;;;;;8.60;6.63;;;;;;;3.27;100.00;99233.69;5071635;28;20690;-80
2023/01/04 04:45:55;;;;;;;9.93;7.00;;;;;;;3.34;100.00;99237.00;5071613;28;20257;-78
2023/01/04 04:48:22;;;;;;;9.33;6.70;;;;;;;3.40;100.00;99232.50;5071463;28;20594;-77
2023/01/04 04:50:48;;;;;;;10.40;7.20;;;;;;;3.37;100.00;99229.09;5070846;28;20560;-78
2023/01/04 04:53:15;;;;;;;9.13;6.97;;;;;;;3.40;100.00;99215.94;5071304;28;20210;-78
2023/01/04 04:55:41;;;;;;;9.33;6.93;;;;;;;3.44;100.00;99217.59;5071432;28;20206;-78
2023/01/04 04:58:09;;;;;;;9.47;6.67;;;;;;;3.46;100.00;99216.69;5071322;28;20238;-80
2023/01/04 05:00:35;;;;;;;9.63;6.60;;;;;;;3.47;100.00;99207.06;5070449;28;20204;-78
2023/01/04 05:03:02;;;;;;;8.77;6.93;;;;;;;3.52;100.00;99211.31;5071280;28;20214;-78
2023/01/04 05:05:29;;;;;;;9.23;6.70;;;;;;;3.56;100.00;99205.09;5071007;28;20608;-78
2023/01/04 05:07:55;;;;;;;7.73;5.47;;;;;;;3.58;100.00;99203.31;5070835;28;20239;-78
2023/01/04 05:10:21;;;;;;;8.47;6.33;;;;;;;3.59;100.00;99212.00;5070580;28;20189;-78
2023/01/04 05:12:59;;;;;;;8.37;6.10;;;;;;;3.66;100.00;99209.19;5071163;28;20218;-78
2023/01/04 05:15:31;;;;;;;6.90;5.43;;;;;;;3.69;100.00;99216.97;5070962;28;20208;-78
2023/01/04 05:17:57;;;;;;;7.27;5.70;;;;;;;3.72;100.00;99209.03;5070862;28;20231;-80
2023/01/04 05:20:24;;;;;;;7.00;5.50;;;;;;;3.74;100.00;99217.69;5072782;28;20230;-78
2023/01/04 05:22:50;;;;;;;7.77;6.30;;;;;;;3.80;100.00;99216.72;5075048;28;20204;-78
2023/01/04 05:25:17;;;;;;;7.73;6.10;;;;;;;3.93;100.00;99213.75;5075067;28;20242;-78
2023/01/04 05:27:44;;;;;;;6.20;5.60;;;;;;;3.90;100.00;99207.72;5074823;28;20208;-78
2023/01/04 05:32:58;;;;;;;6.20;5.23;;;;;;;3.99;100.00;99205.75;5074809;28;20514;-78
2023/01/04 05:35:25;;;;;;;7.03;5.20;;;;;;;4.05;100.00;99207.34;5074879;28;20213;-78
2023/01/04 05:37:51;;;;;;;6.37;5.17;;;;;;;4.06;100.00;99204.69;5074630;28;20214;-78
2023/01/04 05:40:18;;;;;;;7.23;4.60;;;;;;;4.08;100.00;99208.09;5074003;28;20208;-78
2023/01/04 05:42:44;;;;;;;6.97;5.20;;;;;;;4.16;100.00;99206.13;5074465;28;20297;-78
2023/01/04 05:45:11;;;;;;;5.47;4.57;;;;;;;4.20;100.00;99215.63;5074521;28;20322;-78
2023/01/04 05:47:37;;;;;;;5.13;4.03;;;;;;;4.24;100.00;99204.19;5074214;28;20217;-78
2023/01/04 05:50:06;;;;;;;7.10;5.17;;;;;;;4.29;100.00;99207.50;5073885;28;20211;-78
2023/01/04 05:52:33;;;;;;;5.97;4.50;;;;;;;4.32;100.00;99202.22;5074286;28;20211;-78
2023/01/04 05:54:59;;;;;;;6.80;4.30;;;;;;;4.35;100.00;99202.13;5074208;28;20206;-78
2023/01/04 05:57:26;;;;;;;5.47;4.27;;;;;;;4.40;100.00;99202.00;5074308;28;20206;-79
2023/01/04 05:59:53;;;;;;;5.10;3.80;;;;;;;4.48;100.00;99197.41;5073256;28;20581;-78
2023/01/04 06:02:22;;;;;;;4.97;3.87;;;;;;;4.51;100.00;99197.31;5074276;28;20209;-78
2023/01/04 06:04:49;;;;;;;4.83;3.90;;;;;;;4.58;100.00;99198.88;5074238;28;20231;-80
2023/01/04 06:07:17;;;;;;;4.87;3.80;;;;;;;4.62;100.00;99190.00;5073994;28;20214;-80
2023/01/04 06:09:44;;;;;;;4.03;3.57;;;;;;;4.66;100.00;99192.53;5101048;22;20253;-82
2023/01/04 06:12:12;;;;;;;5.07;4.00;;;;;;;4.69;100.00;99187.19;5094349;28;20240;-82
2023/01/04 06:14:38;;;;;;;5.47;3.67;;;;;;;4.68;100.00;99195.94;5094578;28;20202;-83
2023/01/04 06:17:05;;;;;;;5.13;4.03;;;;;;;4.71;100.00;99185.38;5094238;28;20722;-82
2023/01/04 06:19:32;;;;;;;5.07;3.90;;;;;;;4.72;100.00;99187.09;5093591;28;20235;-82
2023/01/04 06:21:58;;;;;;;5.80;4.10;;;;;;;4.75;100.00;99184.38;5094565;28;20211;-82
2023/01/04 06:24:26;;;;;;;6.27;4.30;;;;;;;4.77;100.00;99190.41;5094029;28;20207;-82
2023/01/04 06:26:53;;;;;;;4.40;3.97;;;;;;;4.77;100.00;99189.59;5094118;28;20203;-82
2023/01/04 06:29:19;;;;;;;6.50;4.03;;;;;;;4.84;100.00;99189.34;5093572;28;20231;-82
2023/01/04 06:31:46;;;;;;;5.70;3.87;;;;;;;4.89;100.00;99189.22;5092953;28;20579;-82
2023/01/04 06:34:14;;;;;;;4.77;4.10;;;;;;;4.89;100.00;99190.06;5094119;28;20210;-82
2023/01/04 06:36:41;;;;;;;6.33;4.27;;;;;;;4.89;100.00;99190.06;5094123;28;20210;-82
2023/01/04 06:39:08;;;;;;;4.97;4.00;;;;;;;4.93;100.00;99183.84;5092992;28;20234;-82
2023/01/04 06:41:36;;;;;;;5.13;4.33;;;;;;;4.96;100.00;99186.34;5093792;28;20589;-83
2023/01/04 06:44:02;;;;;;;5.20;4.07;;;;;;;5.01;100.00;99189.69;5094160;28;20222;-82
2023/01/04 06:46:29;;;;;;;4.90;4.30;;;;;;;5.03;100.00;99182.66;5093671;28;20715;-82
2023/01/04 06:48:55;;;;;;;5.43;4.33;;;;;;;5.08;100.00;99180.72;5092663;28;20714;-82
2023/01/04 06:51:22;;;;;;;4.70;3.93;;;;;;;5.07;100.00;99179.03;5093556;28;20586;-83
2023/01/04 06:53:49;;;;;;;6.00;4.47;;;;;;;5.11;100.00;99185.91;5093426;28;20697;-82
2023/01/04 06:56:15;;;;;;;4.80;4.07;;;;;;;5.16;100.00;99183.13;5093791;28;20551;-83
2023/01/04 06:58:43;;;;;;;5.47;4.33;;;;;;;5.19;100.00;99178.66;5093564;28;20231;-83
2023/01/04 07:01:09;;;;;;;4.90;4.13;;;;;;;5.28;100.00;99181.00;5093211;28;20207;-82
2023/01/04 07:03:36;;;;;;;4.90;3.93;;;;;;;5.28;100.00;99172.25;5093180;28;20210;-82
2023/01/04 07:06:04;;;;;;;4.33;3.80;;;;;;;5.28;100.00;99165.28;5092990;28;20227;-82
2023/01/04 07:08:31;;;;;;;4.13;3.60;;;;;;;5.27;100.00;99166.19;5092772;28;20227;-82
2023/01/04 07:10:57;;;;;;;5.63;3.87;;;;;;;5.30;100.00;99160.81;5092753;28;20208;-82
2023/01/04 07:13:24;;;;;;;4.77;3.63;;;;;;;5.31;100.00;99170.41;5093269;28;20210;-82
2023/01/04 07:15:52;;;;;;;4.27;3.80;;;;;;;5.32;100.00;99166.03;5093127;28;20206;-81
2023/01/04 07:18:18;;;;;;;5.57;3.63;;;;;;;5.31;100.00;99173.03;5092909;28;20584;-77
2023/01/04 07:20:45;;;;;;;5.57;3.80;;;;;;;5.40;100.00;99164.00;5092193;28;20223;-82
2023/01/04 07:23:11;;;;;;;5.30;3.83;;;;;;;5.38;100.00;99157.97;5092842;28;20207;-80
2023/01/04 07:25:38;;;;;;;5.43;3.90;;;;;;;5.42;100.00;99160.44;5092964;28;20241;-81
2023/01/04 07:28:04;;;;;;;5.00;3.67;;;;;;;5.45;100.00;99169.97;5092694;28;20229;-80
2023/01/04 07:30:31;;;;;;;4.70;3.63;;;;;;;5.47;100.00;99165.53;5092106;28;20218;-80
2023/01/04 07:32:59;;;;;;;4.07;3.27;;;;;;;5.42;100.00;99165.69;5092879;28;20206;-81
2023/01/04 07:35:25;;;;;;;3.83;3.07;;;;;;;5.45;100.00;99162.94;5093023;28;20198;-81
2023/01/04 07:37:52;;;;;;;3.13;2.77;;;;;;;5.44;100.00;99163.84;5091642;28;20206;-80
2023/01/04 07:40:19;;;;;;;3.67;2.83;;;;;;;5.37;100.00;99164.97;5091600;28;20230;-82
2023/01/04 07:42:54;;;;;;;6.73;4.10;;;;;;;5.36;100.00;99147.53;5092233;28;20207;-82
2023/01/04 07:45:20;;;;;;;3.80;3.30;;;;;;;5.33;100.00;99147.63;5092431;28;20238;-83
2023/01/04 07:47:46;;;;;;;5.47;3.80;;;;;;;5.26;100.00;99147.88;5092666;28;20203;-82
2023/01/04 07:50:14;;;;;;;5.27;3.77;;;;;;;5.22;100.00;99151.50;5091495;28;20227;-82
2023/01/04 07:52:41;;;;;;;5.33;3.87;;;;;;;5.21;100.00;99149.78;5092127;28;20213;-84
2023/01/04 07:55:08;;;;;;;5.40;4.07;;;;;;;5.14;100.00;99156.97;5092329;28;20207;-82
2023/01/04 07:57:35;;;;;;;4.67;3.83;;;;;;;5.13;100.00;99163.13;5092200;28;20217;-82
2023/01/04 08:00:01;;;;;;;7.83;4.13;;;;;;;5.11;100.00;99153.59;5091267;28;20231;-79
2023/01/04 08:02:28;;;;;;;4.93;3.67;;;;;;;5.11;100.00;99149.22;5091991;28;20305;-82
2023/01/04 08:04:55;;;;;;;6.10;4.30;;;;;;;5.12;100.00;99144.84;5091918;28;20738;-76
2023/01/04 08:07:23;;;;;;;4.90;3.87;;;;;;;5.14;100.00;99143.03;5092422;28;20231;-80
2023/01/04 08:09:50;;;;;;;6.13;4.00;;;;;;;5.10;100.00;99144.88;5091213;28;20230;-80
2023/01/04 08:12:16;;;;;;;7.30;4.57;;;;;;;5.11;100.00;99137.88;5092527;28;20309;-80
2023/01/04 08:14:43;;;;;;;6.63;3.90;;;;;;;5.12;100.00;99127.34;5092024;28;20673;-79
2023/01/04 08:17:10;;;;;;;6.37;4.37;;;;;;;5.10;100.00;99126.53;5091928;28;20559;-77
2023/01/04 08:19:36;;;;;;;5.73;4.07;;;;;;;5.11;100.00;99125.63;5091145;28;20230;-81
2023/01/04 08:22:03;;;;;;;5.80;4.40;;;;;;;5.13;100.00;99118.56;5091779;28;20301;-81
2023/01/04 08:24:30;;;;;;;6.33;4.27;;;;;;;5.10;100.00;99113.44;5091822;28;20213;-79
2023/01/04 08:26:58;;;;;;;5.07;4.10;;;;;;;5.16;100.00;99125.47;5091675;28;20222;-77
2023/01/04 08:29:24;;;;;;;6.60;3.80;;;;;;;5.17;100.00;99127.19;5090958;28;20237;-82
2023/01/04 08:31:51;;;;;;;4.37;3.60;;;;;;;5.21;100.00;99119.19;5091927;28;20590;-82
2023/01/04 08:34:17;;;;;;;5.73;4.03;;;;;;;5.24;100.00;99128.69;5091821;28;20210;-85
2023/01/04 08:36:47;;;;;;;4.87;3.17;;;;;;;5.28;100.00;99123.34;5091615;28;20207;-85
2023/01/04 08:39:13;;;;;;;3.83;3.03;;;;;;;5.31;100.00;99112.72;5090787;28;20253;-85
2023/01/04 08:41:50;;;;;;;4.23;3.13;;;;;;;5.35;100.00;99111.72;5091907;28;20203;-85
2023/01/04 08:44:17;;;;;;;5.43;3.37;;;;;;;5.40;100.00;99109.81;5091584;28;20243;-85
2023/01/04 08:46:44;;;;;;;3.93;2.90;;;;;;;5.46;100.00;99099.13;5091352;28;20280;-85
2023/01/04 08:49:11;;;;;;;3.73;2.70;;;;;;;5.47;100.00;99099.97;5090343;28;20706;-85
2023/01/04 08:51:38;;;;;;;3.53;3.10;;;;;;;5.46;100.00;99082.53;5091219;28;20203;-85
2023/01/04 08:54:04;;;;;;;4.73;3.10;;;;;;;5.47;100.00;99079.00;5091145;28;20206;-85
2023/01/04 08:56:33;;;;;;;3.83;3.10;;;;;;;5.51;100.00;99091.09;5091370;28;20203;-85
2023/01/04 08:59:01;;;;;;;5.10;2.97;;;;;;;5.49;100.00;99092.94;5091114;28;20236;-85
2023/01/04 09:01:28;;;;;;;7.20;3.27;;;;;;;5.55;100.00;99088.31;5090716;28;20664;-85
2023/01/04 09:03:56;;;;;;;4.25;3.10;;;;;;;5.60;100.00;99086.41;5088801;28;20444;-86
2023/01/04 09:06:23;;;;;;;3.70;2.87;;;;;;;5.56;100.00;99078.72;5090406;28;20223;-86
2023/01/04 09:08:49;;;;;;;3.27;2.90;;;;;;;5.59;100.00;99089.06;5090067;28;20234;-86
2023/01/04 09:11:18;;;;;;;3.80;2.70;;;;;;;5.63;100.00;99102.03;5089772;28;20702;-86
2023/01/04 09:13:45;;;;;;;3.13;2.33;;;;;;;5.69;100.00;99100.97;5077128;28;20205;-86
2023/01/04 09:16:15;;;;;;;3.87;3.07;;;;;;;5.68;100.00;99094.03;5070409;28;20214;-85
2023/01/04 09:18:42;;;;;;;3.93;2.90;;;;;;;5.67;100.00;99087.06;5069490;28;20227;-85
2023/01/04 09:21:10;;;;;;;3.73;2.53;;;;;;;5.72;100.00;99093.84;5070153;28;20211;-85
2023/01/04 09:23:38;;;;;;;4.70;2.73;;;;;;;5.82;100.00;99087.41;5070356;28;20210;-85
2023/01/04 09:26:05;;;;;;;5.20;2.40;;;;;;;5.90;100.00;99090.63;5069445;28;20233;-85
2023/01/04 09:28:32;;;;;;;2.87;2.10;;;;;;;5.98;100.00;99092.97;5070210;28;20231;-85
2023/01/04 09:30:59;;;;;;;3.50;1.80;;;;;;;6.04;100.00;99090.13;5069558;28;20210;-85
2023/01/04 09:33:27;;;;;;;2.83;1.70;;;;;;;6.11;100.00;99087.22;5069670;28;20302;-86
2023/01/04 09:35:53;;;;;;;2.53;1.50;;;;;;;6.21;100.00;99090.34;5070357;28;20204;-85
2023/01/04 09:38:20;;;;;;;1.70;1.20;;;;;;;6.30;100.00;99075.13;5070372;28;20215;-85
2023/01/04 09:40:54;;;;;;;2.30;1.40;;;;;;;6.40;100.00;99076.50;5068655;28;20208;-85
2023/01/04 09:43:23;;;;;;;1.97;1.03;;;;;;;6.53;100.00;99067.25;5070555;28;20196;-85
2023/01/04 09:45:53;;;;;;;1.93;1.20;;;;;;;6.58;100.00;99054.78;5071037;28;20722;-85
2023/01/04 09:48:25;;;;;;;2.70;1.08;;;;;;;6.66;100.00;99052.72;5070485;28;20426;-85
2023/01/04 09:50:58;;;;;;;1.33;0.97;;;;;;;6.76;100.00;99054.06;5085381;28;20212;-85
2023/01/04 09:53:28;;;;;;;2.60;0.90;;;;;;;6.83;100.00;99037.13;5091139;28;20859;-85
2023/01/04 09:56:01;;;;;;;2.50;0.93;;;;;;;6.82;100.00;99048.56;5091328;28;20203;-83
2023/01/04 09:58:32;;;;;;;1.03;0.90;;;;;;;6.93;100.00;99035.88;5090166;28;20232;-83
2023/01/04 10:01:03;;;;;;;1.53;0.90;;;;;;;6.97;100.00;99026.09;5089984;28;20432;-79
2023/01/04 10:03:33;;;;;;;1.33;0.90;;;;;;;7.01;100.00;99023.25;5091007;28;20313;-80
2023/01/04 10:06:02;;;;;;;1.77;1.00;;;;;;;7.09;100.00;99015.91;5092935;28;20227;-81
2023/01/04 10:08:30;;;;;;;1.43;0.80;;;;;;;7.12;100.00;99002.66;5094404;28;20230;-81
2023/01/04 10:11:14;;;;;;;1.00;0.90;;;;;;;7.17;100.00;99003.31;5093817;28;20216;-80
2023/01/04 10:14:00;;;;;;;1.73;0.90;;;;;;;7.23;100.00;98995.19;5094058;28;20691;-82
2023/01/04 10:16:39;;;;;;;2.80;0.87;;;;;;;7.28;100.00;98990.59;5094070;28;20217;-81
2023/01/04 10:19:18;;;;;;;1.13;0.97;;;;;;;7.32;100.00;98978.16;5093108;28;20238;-81
2023/01/04 10:21:51;;;;;;;2.33;1.00;;;;;;;7.40;100.00;98982.13;5092931;28;20441;-79
2023/01/04 10:24:34;;;;;;;1.23;0.67;;;;;;;7.43;100.00;98964.47;5093845;28;20230;-81
2023/01/04 10:27:07;;;;;;;1.37;0.90;;;;;;;7.47;100.00;98970.47;5094090;28;20749;-82
2023/01/04 10:29:50;;;;;;;0.93;0.90;;;;;;;7.54;100.00;98971.91;5093237;28;20222;-80
2023/01/04 10:32:23;;;;;;;1.17;0.70;;;;;;;7.62;100.00;98975.03;5093619;28;20222;-81
2023/01/04 10:34:50;;;;;;;2.03;0.80;;;;;;;7.68;100.00;98966.88;5093510;28;20207;-81
2023/01/04 10:37:21;;;;;;;1.60;0.90;;;;;;;7.76;100.00;98959.47;5094069;28;20214;-81
2023/01/04 10:39:51;;;;;;;2.00;0.90;;;;;;;7.81;100.00;98954.88;5093180;28;20283;-81
2023/01/04 10:42:30;;;;;;;2.03;1.00;;;;;;;7.84;100.00;98950.31;5093729;28;20217;-81
2023/01/04 10:45:08;;;;;;;2.00;0.90;;;;;;;7.95;100.00;98936.69;5093631;28;20217;-81
2023/01/04 10:47:41;;;;;;;2.10;0.87;;;;;;;8.09;100.00;98934.28;5093522;28;20226;-81
2023/01/04 10:50:15;;;;;;;1.40;0.80;;;;;;;8.18;100.00;98934.69;5092864;28;20294;-81
2023/01/04 10:52:48;;;;;;;2.67;0.80;;;;;;;8.21;100.00;98933.72;5093786;28;20203;-81
2023/01/04 10:55:20;;;;;;;1.47;1.00;;;;;;;8.32;99.47;98920.91;5093471;28;20682;-80
2023/01/04 10:57:53;;;;;;;1.50;0.90;;;;;;;8.38;99.75;98926.72;5093370;28;20207;-80
2023/01/04 11:00:24;;;;;;;2.00;0.93;;;;;;;8.42;99.00;98917.75;5092412;28;20235;-82
2023/01/04 11:02:58;;;;;;;0.87;0.70;;;;;;;8.46;98.01;98913.19;5093379;28;20205;-84
2023/01/04 11:05:28;;;;;;;1.77;0.70;;;;;;;8.52;98.49;98907.63;5093747;28;20210;-82
2023/01/04 11:08:02;;;;;;;1.50;1.00;;;;;;;8.57;98.42;98905.63;5093054;28;20717;-78
2023/01/04 11:10:34;;;;;;;2.37;0.90;;;;;;;8.68;96.86;98892.75;5091884;28;20219;-82
2023/01/04 11:13:01;;;;;;;1.80;0.80;;;;;;;8.73;96.49;98890.75;5093658;28;20566;-81
2023/01/04 11:15:28;;;;;;;2.07;0.70;;;;;;;8.78;95.76;98878.19;5093073;28;20210;-79
2023/01/04 11:17:56;;;;;;;1.00;0.70;;;;;;;8.83;94.73;98870.91;5092371;28;20298;-79
2023/01/04 11:20:22;;;;;;;1.23;0.80;;;;;;;8.83;93.50;98860.38;5092031;28;20228;-79
2023/01/04 11:22:55;;;;;;;0.77;0.77;;;;;;;8.85;92.92;98927.03;5093035;28;20752;-78
2023/01/04 11:25:24;;;;;;;0.83;0.60;;;;;;;8.88;93.22;98937.44;5092848;28;20220;-78
2023/01/04 11:27:54;;;;;;;1.17;0.70;;;;;;;8.93;92.67;98924.91;5092966;28;20240;-79
2023/01/04 11:30:24;;;;;;;0.80;0.70;;;;;;;8.97;92.85;98922.03;5092107;28;20689;-78
2023/01/04 11:32:55;;;;;;;0.90;0.70;;;;;;;8.93;92.90;98923.09;5092740;28;20686;-81
2023/01/04 11:35:48;;;;;;;1.77;0.90;;;;;;;8.97;92.16;98922.03;5091567;28;20298;-80
2023/01/04 11:38:16;;;;;;;0.67;0.50;;;;;;;8.99;91.26;98924.59;5072410;28;20205;-82
2023/01/04 11:40:54;;;;;;;0.80;0.60;;;;;;;8.94;91.93;98919.53;5091999;28;20703;-81
2023/01/04 11:43:23;;;;;;;0.80;0.70;;;;;;;8.93;91.93;98923.09;5091657;28;20212;-79
2023/01/04 11:45:54;;;;;;;1.13;0.70;;;;;;;9.02;92.77;98913.88;5092343;28;20212;-82
2023/01/04 11:48:31;;;;;;;1.30;0.80;;;;;;;8.95;92.71;98912.47;5092526;28;20239;-82
2023/01/04 11:50:58;;;;;;;2.13;0.70;;;;;;;8.95;92.36;98917.75;5091860;28;20676;-79
2023/01/04 11:53:28;;;;;;;1.52;0.80;;;;;;;8.98;92.81;98923.72;5091724;28;20432;-88
2023/01/04 11:56:15;;;;;;;0.90;0.80;;;;;;;8.97;93.51;98921.16;5092957;28;20209;-83
2023/01/04 11:58:44;;;;;;;1.67;0.70;;;;;;;8.99;93.37;98920.16;5092409;28;20232;-86
2023/01/04 12:01:28;;;;;;;0.80;0.53;;;;;;;8.97;93.12;98921.16;5092246;28;20240;-90
2023/01/04 12:03:55;;;;;;;1.53;0.70;;;;;;;8.97;94.15;98926.44;5092424;28;20208;-88
2023/01/04 12:06:30;;;;;;;0.80;0.80;;;;;;;8.96;94.06;98930.00;5092100;28;20211;-89
2023/01/04 12:08:57;;;;;;;1.50;0.87;;;;;;;8.98;94.34;98922.84;5103798;22;20696;-80
2023/01/04 12:11:30;;;;;;;0.70;0.70;;;;;;;9.02;92.84;98927.06;5071657;28;20217;-81
2023/01/04 12:13:58;;;;;;;0.80;0.67;;;;;;;9.02;92.84;98919.16;5071736;28;20208;-81
2023/01/04 12:16:41;;;;;;;0.97;0.73;;;;;;;9.04;93.58;98912.88;5071903;28;20314;-81
2023/01/04 12:19:12;;;;;;;1.23;0.80;;;;;;;9.06;93.35;98920.69;5070116;28;20225;-81
2023/01/04 12:21:39;;;;;;;1.57;0.73;;;;;;;9.10;92.88;98916.97;5071728;28;20713;-81
2023/01/04 12:24:07;;;;;;;1.07;0.70;;;;;;;9.12;93.30;98907.22;5085008;28;20674;-79
2023/01/04 12:26:41;;;;;;;0.90;0.73;;;;;;;9.12;92.94;98907.22;5091401;28;20273;-78
2023/01/04 12:29:43;;;;;;;1.27;0.90;;;;;;;9.19;93.41;98911.22;5089955;28;20637;-78